Time;durP1;ratioP1;P1;durP2;ratioP2;P2;SDS_P1;SDS_P2;PMS_P1;PMS_P2;Temp;Humidity;BMP_temperature;BMP_pressure;BME280_temperature;BME280_humidity;BME280_pressure;Samples;Min_cycle;Max_cycle;Signal;HPM_P1;HPM_P2
2022/02/27 00:00:45;;;;;;;11.87;4.87;;;1.60;71.80;;;2.20;56.77;98970.63;6236207;23;20020;-37
2022/02/27 00:03:13;;;;;;;11.47;5.83;;;1.70;72.00;;;2.20;56.80;98970.63;6235884;23;20196;-38
2022/02/27 00:05:41;;;;;;;17.67;6.80;;;1.70;71.70;;;2.23;56.44;98966.97;6237173;23;20043;-37
2022/02/27 00:08:09;;;;;;;15.10;6.63;;;1.80;71.20;;;2.22;56.44;98966.13;6208984;23;20022;-37
2022/02/27 00:10:37;;;;;;;11.23;6.63;;;1.70;70.80;;;2.20;56.80;98965.38;6234843;23;20047;-37
2022/02/27 00:13:05;;;;;;;10.37;6.47;;;1.70;71.00;;;2.14;56.94;98966.50;6236515;23;20030;-37
2022/02/27 00:15:33;;;;;;;13.27;7.10;;;1.70;71.00;;;2.11;56.83;98964.06;6236278;23;20024;-38
2022/02/27 00:18:00;;;;;;;10.60;5.50;;;1.60;71.10;;;2.09;56.74;98967.66;6236176;23;20021;-37
2022/02/27 00:20:28;;;;;;;11.57;4.80;;;1.50;72.00;;;2.04;57.22;98965.28;6236908;23;20562;-37
2022/02/27 00:22:57;;;;;;;12.27;4.33;;;1.50;72.50;;;2.03;57.34;98968.81;6236098;23;20084;-37
2022/02/27 00:25:25;;;;;;;8.40;4.87;;;1.50;72.40;;;1.99;57.29;98961.16;6236261;23;20221;-37
2022/02/27 00:27:53;;;;;;;9.40;4.47;;;1.50;72.30;;;2.00;57.11;98968.09;6235505;23;20031;-38
2022/02/27 00:30:21;;;;;;;8.83;5.17;;;1.50;72.60;;;2.00;57.42;98970.72;6208052;23;20023;-37
2022/02/27 00:32:49;;;;;;;11.30;6.03;;;1.50;72.70;;;2.01;57.39;98964.56;6210013;23;20030;-37
2022/02/27 00:35:17;;;;;;;10.03;5.80;;;1.50;72.00;;;2.03;57.07;98965.34;6235813;23;20034;-37
2022/02/27 00:37:45;;;;;;;11.73;5.97;;;1.50;72.20;;;2.03;57.34;98967.97;6235888;23;20020;-37
2022/02/27 00:40:13;;;;;;;10.37;6.30;;;1.50;72.40;;;2.04;57.48;98972.31;6208881;23;20024;-38
2022/02/27 00:42:41;;;;;;;10.80;4.60;;;1.60;72.20;;;2.06;57.29;98965.19;6208361;23;20016;-37
2022/02/27 00:45:09;;;;;;;12.07;4.73;;;1.60;72.40;;;2.05;57.12;98966.97;6210015;23;20023;-37
2022/02/27 00:47:38;;;;;;;10.87;4.17;;;1.60;72.70;;;2.04;57.42;98972.31;6235671;23;20031;-37
2022/02/27 00:50:07;;;;;;;7.20;4.40;;;1.60;73.00;;;2.02;57.67;98972.38;6207857;23;20028;-37
2022/02/27 00:52:35;;;;;;;7.97;4.23;;;1.50;73.30;;;1.99;57.50;98980.41;6236214;23;20030;-37
2022/02/27 00:55:04;;;;;;;9.37;4.27;;;1.50;73.30;;;1.96;58.03;98970.06;6209935;23;20035;-37
2022/02/27 00:57:33;;;;;;;8.23;3.97;;;1.50;73.80;;;1.98;57.71;98973.47;6235213;23;20020;-37
2022/02/27 01:00:02;;;;;;;10.53;4.67;;;1.50;73.80;;;1.97;57.70;98972.59;6207513;23;20024;-37
2022/02/27 01:02:30;;;;;;;9.10;4.70;;;1.50;73.60;;;1.96;57.63;98954.31;6236002;23;20012;-38
2022/02/27 01:04:59;;;;;;;8.43;4.13;;;1.50;74.10;;;1.95;58.22;98969.19;6235265;23;20353;-37
2022/02/27 01:07:27;;;;;;;8.17;4.53;;;1.50;74.10;;;1.93;57.79;98975.44;6234209;23;20028;-37
2022/02/27 01:09:55;;;;;;;8.67;4.43;;;1.40;74.10;;;1.93;57.89;98962.31;6235269;23;20023;-37
2022/02/27 01:12:23;;;;;;;7.53;4.00;;;1.50;74.30;;;1.90;57.48;98965.94;6237255;23;20016;-37
2022/02/27 01:14:51;;;;;;;8.47;5.13;;;1.40;73.50;;;1.91;58.00;98974.69;6209486;23;20026;-38
2022/02/27 01:17:18;;;;;;;9.47;4.67;;;1.40;73.80;;;1.92;57.70;98976.34;6236322;23;20020;-37
2022/02/27 01:19:46;;;;;;;11.33;4.97;;;1.40;73.50;;;1.92;57.98;98963.22;6207770;23;20514;-37
2022/02/27 01:22:15;;;;;;;13.93;7.50;;;1.50;73.90;;;1.93;58.23;98967.56;6246533;23;20036;-37
2022/02/27 01:24:43;;;;;;;14.53;7.13;;;1.40;73.80;;;1.91;58.36;98958.91;6236160;23;20027;-37
2022/02/27 01:27:11;;;;;;;15.10;7.97;;;1.40;74.20;;;1.91;58.07;98961.53;6209010;23;20342;-37
2022/02/27 01:29:40;;;;;;;10.33;6.67;;;1.40;74.80;;;1.91;58.42;98959.75;6207929;23;20016;-37
2022/02/27 01:32:09;;;;;;;11.07;5.50;;;1.40;75.00;;;1.91;58.21;98954.50;6236829;23;20026;-37
2022/02/27 01:34:38;;;;;;;10.70;5.13;;;1.40;75.00;;;1.90;58.11;98957.19;6209202;23;20023;-37
2022/02/27 01:37:06;;;;;;;7.73;4.67;;;1.40;75.00;;;1.90;58.49;98952.81;6208380;23;20024;-37
2022/02/27 01:39:36;;;;;;;9.87;4.33;;;1.40;75.00;;;1.89;58.64;98943.22;6207529;23;20024;-37
2022/02/27 01:42:04;;;;;;;12.63;4.80;;;1.40;74.90;;;1.90;58.27;98941.44;6208622;23;20241;-37
2022/02/27 01:44:32;;;;;;;7.03;4.60;;;1.40;74.80;;;1.89;58.15;98935.34;6208213;23;20019;-37
2022/02/27 01:47:03;;;;;;;12.53;5.30;;;1.40;74.60;;;1.88;58.67;98936.28;6235798;23;20020;-37
2022/02/27 01:49:31;;;;;;;11.07;4.37;;;1.40;74.40;;;1.90;57.82;98931.81;6244565;23;20024;-37
2022/02/27 01:52:05;;;;;;;9.27;4.70;;;1.40;74.40;;;1.88;58.39;98930.16;6237090;23;20024;-37
2022/02/27 01:54:34;;;;;;;7.50;3.85;;;1.40;74.30;;;1.85;58.32;98933.81;6234225;23;20016;-37
2022/02/27 01:57:03;;;;;;;7.37;3.17;;;1.40;74.40;;;1.84;57.83;98928.63;6235833;23;20020;-37
2022/02/27 01:59:31;;;;;;;8.23;3.83;;;1.40;74.30;;;1.83;58.16;98924.31;6206262;23;20024;-38
2022/02/27 02:01:59;;;;;;;9.03;3.97;;;1.40;74.10;;;1.84;57.93;98929.50;6235397;23;20020;-38
2022/02/27 02:04:27;;;;;;;10.00;4.17;;;1.40;74.20;;;1.81;58.09;98932.25;6233658;23;20024;-38
2022/02/27 02:06:55;;;;;;;7.87;3.43;;;1.40;74.10;;;1.81;58.45;98926.16;6235120;23;20024;-38
2022/02/27 02:09:23;;;;;;;8.07;3.47;;;1.40;74.20;;;1.79;58.37;98933.25;6184503;23;20028;-38
2022/02/27 02:11:53;;;;;;;10.77;4.03;;;1.30;74.20;;;1.74;58.08;98931.69;6209156;23;20020;-38
2022/02/27 02:14:23;;;;;;;9.47;3.83;;;1.30;74.60;;;1.71;58.59;98931.00;6207608;23;20028;-38
2022/02/27 02:16:54;;;;;;;7.70;4.57;;;1.20;74.70;;;1.69;58.33;98940.75;6207973;23;20024;-38
2022/02/27 02:19:26;;;;;;;9.43;4.27;;;1.20;74.90;;;1.66;58.62;98928.59;6205944;23;20016;-38
2022/02/27 02:22:04;;;;;;;10.10;4.10;;;1.20;75.10;;;1.64;58.60;98925.19;6209418;23;20016;-37
2022/02/27 02:24:33;;;;;;;11.57;4.60;;;1.20;75.30;;;1.66;58.78;98931.22;6208055;23;20057;-37
2022/02/27 02:27:01;;;;;;;12.00;4.37;;;1.20;75.40;;;1.62;58.40;98929.66;6208193;23;20034;-38
2022/02/27 02:29:29;;;;;;;5.73;3.50;;;1.10;75.40;;;1.56;58.66;98919.47;6208858;23;20191;-38
2022/02/27 02:31:59;;;;;;;8.83;4.43;;;1.00;76.10;;;1.53;58.60;98925.72;6210712;23;20028;-37
2022/02/27 02:34:27;;;;;;;8.10;3.70;;;1.00;76.30;;;1.51;59.18;98916.19;6209575;23;20020;-38
2022/02/27 02:36:56;;;;;;;6.47;3.50;;;1.00;76.10;;;1.50;58.98;98917.97;6234163;23;20066;-37
2022/02/27 02:39:27;;;;;;;9.47;4.47;;;1.00;76.00;;;1.51;58.66;98908.31;6236393;23;20517;-38
2022/02/27 02:41:58;;;;;;;7.77;3.63;;;1.00;75.90;;;1.47;58.60;98912.03;6234281;23;20023;-38
2022/02/27 02:44:34;;;;;;;8.63;3.53;;;1.00;75.60;;;1.42;58.86;98916.66;6183812;23;20020;-38
2022/02/27 02:47:02;;;;;;;9.00;3.83;;;0.90;75.80;;;1.35;58.65;98916.06;6235139;23;20016;-37
2022/02/27 02:49:31;;;;;;;7.50;3.50;;;0.80;75.90;;;1.31;59.04;98919.78;6234690;23;20330;-38
2022/02/27 02:52:00;;;;;;;5.43;3.23;;;0.80;75.90;;;1.28;59.24;98905.03;6208532;23;20020;-37
2022/02/27 02:54:29;;;;;;;14.43;4.87;;;0.80;76.20;;;1.13;59.37;98911.84;6209403;23;20027;-38
2022/02/27 02:56:58;;;;;;;7.37;3.93;;;0.60;76.10;;;1.11;59.51;98902.34;6232621;23;20028;-38
2022/02/27 02:59:26;;;;;;;8.13;3.60;;;0.60;76.50;;;1.09;58.92;98910.28;6234679;23;20222;-38
2022/02/27 03:01:54;;;;;;;6.43;3.63;;;0.60;76.90;;;1.12;59.07;98909.28;6236379;23;20012;-37
2022/02/27 03:04:22;;;;;;;8.07;4.90;;;0.60;76.70;;;1.13;59.44;98895.25;6235122;23;20016;-38
2022/02/27 03:06:50;;;;;;;8.80;4.53;;;0.60;76.40;;;1.14;59.27;98910.94;6233460;23;20016;-38
2022/02/27 03:09:18;;;;;;;8.47;4.10;;;0.70;76.60;;;1.17;59.29;98917.78;6234650;23;20018;-38
2022/02/27 03:11:47;;;;;;;11.60;4.20;;;0.70;76.50;;;1.18;59.63;98901.13;6235344;23;20319;-38
2022/02/27 03:14:15;;;;;;;7.97;3.63;;;0.70;76.80;;;1.17;59.00;98900.28;6235181;23;20020;-38
2022/02/27 03:16:42;;;;;;;10.13;3.80;;;0.70;76.90;;;1.18;59.57;98896.75;6235143;23;20020;-38
2022/02/27 03:19:11;;;;;;;9.40;3.77;;;0.70;76.70;;;1.21;58.79;98892.28;6207703;23;20341;-38
2022/02/27 03:21:39;;;;;;;6.13;4.00;;;0.70;76.00;;;1.20;58.90;98890.56;6235401;23;20022;-38
2022/02/27 03:24:07;;;;;;;12.37;4.50;;;0.70;75.70;;;1.15;58.92;98881.13;6236296;23;20031;-38
2022/02/27 03:26:34;;;;;;;8.47;4.90;;;0.70;75.90;;;1.12;59.30;98894.38;6237359;23;20034;-38
2022/02/27 03:29:03;;;;;;;7.30;3.50;;;0.60;75.70;;;1.12;59.62;98904.88;6237783;23;20030;-37
2022/02/27 03:31:31;;;;;;;12.07;4.17;;;0.60;76.00;;;1.11;59.29;98908.44;6237033;23;20027;-38
2022/02/27 03:33:59;;;;;;;6.00;3.87;;;0.60;76.50;;;1.11;59.43;98900.56;6236776;23;20024;-38
2022/02/27 03:36:27;;;;;;;14.80;4.17;;;0.60;76.40;;;1.09;58.87;98907.66;6237145;23;20050;-38
2022/02/27 03:38:55;;;;;;;9.60;4.30;;;0.60;76.00;;;1.07;59.46;98904.25;6236165;23;20034;-38
2022/02/27 03:41:22;;;;;;;9.53;3.80;;;0.60;75.90;;;1.07;59.20;98909.50;6236982;23;20352;-37
2022/02/27 03:43:50;;;;;;;7.70;5.00;;;0.60;76.00;;;1.05;59.04;98905.22;6236093;23;20030;-38
2022/02/27 03:46:18;;;;;;;9.90;3.93;;;0.60;75.70;;;1.01;58.80;98898.44;6236133;23;20012;-38
2022/02/27 03:48:46;;;;;;;13.33;4.60;;;0.50;75.90;;;1.02;59.75;98902.75;6237477;23;20206;-38
2022/02/27 03:51:15;;;;;;;7.50;3.73;;;0.50;75.90;;;0.98;59.33;98886.31;6210359;23;20027;-38
2022/02/27 03:53:42;;;;;;;9.23;4.43;;;0.50;76.50;;;0.98;59.33;98902.88;6237277;23;20024;-38
2022/02/27 03:56:10;;;;;;;11.60;4.03;;;0.50;76.50;;;0.97;59.58;98897.75;6236895;23;20547;-38
2022/02/27 03:58:38;;;;;;;7.13;3.30;;;0.50;76.20;;;0.93;59.20;98909.25;6235832;23;20020;-38
2022/02/27 04:01:06;;;;;;;9.33;4.17;;;0.50;75.50;;;0.89;59.03;98912.94;6235641;23;20023;-38
2022/02/27 04:03:34;;;;;;;4.43;3.50;;;0.40;76.10;;;0.90;59.18;98897.16;6235152;23;20314;-38
2022/02/27 04:06:01;;;;;;;9.07;4.00;;;0.50;75.90;;;0.89;59.22;98907.72;6236308;23;20012;-38
2022/02/27 04:08:29;;;;;;;10.97;3.90;;;0.40;76.00;;;0.90;59.41;98910.25;6208340;23;20079;-38
2022/02/27 04:10:57;;;;;;;11.93;4.47;;;0.40;76.00;;;0.90;58.92;98914.66;6237013;23;20024;-37
2022/02/27 04:13:25;;;;;;;9.53;3.73;;;0.40;75.80;;;0.89;59.50;98919.06;6236051;23;20034;-38
2022/02/27 04:15:52;;;;;;;8.53;3.60;;;0.40;75.50;;;0.89;59.68;98919.06;6236981;23;20426;-38
2022/02/27 04:18:23;;;;;;;12.87;4.97;;;0.50;75.50;;;0.84;59.51;98917.56;6236579;23;20019;-37
2022/02/27 04:20:51;;;;;;;9.27;4.47;;;0.40;75.30;;;0.84;58.82;98928.06;6235617;23;20024;-38
2022/02/27 04:23:19;;;;;;;9.93;4.63;;;0.40;75.60;;;0.85;59.59;98929.75;6236606;23;20603;-38
2022/02/27 04:25:46;;;;;;;8.53;4.47;;;0.40;75.80;;;0.85;59.80;98919.25;6236829;23;20323;-38
2022/02/27 04:28:14;;;;;;;8.03;5.03;;;0.40;75.80;;;0.86;58.79;98918.34;6236461;23;20016;-38
2022/02/27 04:30:42;;;;;;;8.23;3.70;;;0.40;75.70;;;0.86;59.35;98918.34;6235624;23;20028;-38
2022/02/27 04:33:10;;;;;;;7.87;4.40;;;0.40;75.90;;;0.85;59.71;98914.00;6236201;22;20022;-37
2022/02/27 04:35:38;;;;;;;9.93;5.30;;;0.40;75.90;;;0.83;59.40;98914.06;6235069;23;20189;-37
2022/02/27 04:38:05;;;;;;;9.80;4.27;;;0.40;76.30;;;0.83;59.30;98914.06;6235662;23;20020;-38
2022/02/27 04:40:33;;;;;;;7.57;4.57;;;0.40;76.30;;;0.82;59.13;98909.78;6237166;23;20012;-38
2022/02/27 04:43:02;;;;;;;8.03;4.50;;;0.40;76.30;;;0.84;59.06;98912.34;6236171;23;20019;-38
2022/02/27 04:45:31;;;;;;;10.27;4.80;;;0.40;76.00;;;0.81;58.88;98917.69;6235656;23;20032;-37
2022/02/27 04:47:59;;;;;;;9.77;5.00;;;0.40;75.60;;;0.81;59.46;98920.31;6234857;23;20030;-38
2022/02/27 04:50:27;;;;;;;11.63;5.77;;;0.40;76.40;;;0.80;59.49;98921.25;6235536;23;20016;-38
2022/02/27 04:52:55;;;;;;;10.67;5.13;;;0.30;75.70;;;0.78;59.02;98926.56;6236619;23;20038;-38
2022/02/27 04:55:23;;;;;;;11.43;5.93;;;0.40;75.70;;;0.73;59.70;98929.38;6235518;23;20024;-38
2022/02/27 04:57:50;;;;;;;9.73;5.13;;;0.30;75.60;;;0.68;59.38;98925.25;6236051;23;20016;-37
2022/02/27 05:00:18;;;;;;;12.80;5.33;;;0.20;76.20;;;0.66;59.84;98917.47;6235423;23;20024;-38
2022/02/27 05:02:46;;;;;;;16.10;5.33;;;0.20;76.20;;;0.67;59.78;98926.19;6234129;23;20238;-38
2022/02/27 05:05:14;;;;;;;12.27;4.67;;;0.20;76.00;;;0.66;59.21;98921.84;6234772;23;20027;-38
2022/02/27 05:07:42;;;;;;;8.03;4.57;;;0.20;76.20;;;0.65;59.50;98920.16;6230838;23;20016;-37
2022/02/27 05:10:10;;;;;;;10.37;4.70;;;0.20;75.90;;;0.62;59.12;98920.28;6235199;23;20016;-38
2022/02/27 05:12:41;;;;;;;17.00;6.57;;;0.10;76.00;;;0.59;59.11;98919.50;6236365;23;20329;-37
2022/02/27 05:15:11;;;;;;;10.70;5.80;;;0.10;76.10;;;0.56;59.50;98919.66;6236445;23;20294;-38
2022/02/27 05:17:41;;;;;;;9.53;5.63;;;0.10;76.00;;;0.49;60.09;98915.59;6245579;23;20042;-37
2022/02/27 05:20:11;;;;;;;12.67;5.00;;;0.00;76.30;;;0.51;60.12;98916.38;6232939;23;20024;-38
2022/02/27 05:22:45;;;;;;;15.27;7.23;;;0.00;76.30;;;0.50;59.78;98919.06;6234486;23;20020;-37
2022/02/27 05:25:18;;;;;;;13.30;6.57;;;0.00;76.70;;;0.49;59.25;98912.13;6207735;23;20016;-38
2022/02/27 05:27:50;;;;;;;14.30;6.17;;;0.00;76.60;;;0.47;59.41;98924.44;6234478;23;20023;-38
2022/02/27 05:30:20;;;;;;;14.27;5.50;;;0.00;77.00;;;0.45;59.88;98921.88;6245666;23;20023;-37
2022/02/27 05:32:49;;;;;;;12.73;5.30;;;0.00;77.10;;;0.42;59.34;98923.78;6209582;23;20016;-38
2022/02/27 05:35:17;;;;;;;12.43;5.10;;;0.00;76.70;;;0.42;59.73;98924.63;6235417;23;20024;-37
2022/02/27 05:37:47;;;;;;;12.27;5.33;;;-0.10;76.80;;;0.39;59.53;98930.00;6236438;23;20046;-37
2022/02/27 05:40:15;;;;;;;12.13;5.93;;;-0.10;76.20;;;0.28;60.05;98927.84;6235268;23;20516;-37
2022/02/27 05:42:42;;;;;;;12.67;6.10;;;-0.20;76.60;;;0.29;60.37;98939.16;6235890;23;20020;-37
2022/02/27 05:45:11;;;;;;;11.70;5.40;;;-0.20;77.40;;;0.30;59.64;98941.72;6235390;23;20145;-37
2022/02/27 05:47:39;;;;;;;11.37;5.17;;;-0.10;77.60;;;0.30;59.48;98941.72;6235845;23;20027;-37
2022/02/27 05:50:07;;;;;;;9.57;4.70;;;-0.10;76.80;;;0.29;60.29;98947.03;6234351;23;20241;-37
2022/02/27 05:52:35;;;;;;;8.40;4.63;;;-0.20;76.80;;;0.28;60.11;98940.09;6235841;23;20024;-37
2022/02/27 05:55:04;;;;;;;13.77;5.20;;;-0.20;76.80;;;0.29;59.88;98952.25;6235271;23;20024;-37
2022/02/27 05:57:32;;;;;;;9.63;4.97;;;-0.10;76.80;;;0.32;59.32;98944.28;6234356;23;20542;-38
2022/02/27 06:00:01;;;;;;;10.77;4.33;;;-0.10;76.30;;;0.35;59.15;98947.63;6235513;23;20016;-37
2022/02/27 06:02:31;;;;;;;9.33;4.97;;;-0.10;75.70;;;0.32;59.45;98947.75;6245549;23;20083;-37
2022/02/27 06:05:06;;;;;;;7.50;5.00;;;-0.10;75.40;;;0.34;59.18;98947.69;6244822;23;20012;-38
2022/02/27 06:07:34;;;;;;;9.67;5.87;;;-0.10;76.10;;;0.37;59.36;98953.66;6235476;23;20319;-38
2022/02/27 06:10:02;;;;;;;13.83;5.53;;;-0.10;75.90;;;0.36;59.24;98954.56;6235455;23;20026;-37
2022/02/27 06:12:30;;;;;;;10.53;5.40;;;-0.10;75.80;;;0.35;59.60;98960.72;6235252;23;20016;-37
2022/02/27 06:14:58;;;;;;;9.60;5.13;;;-0.10;75.60;;;0.33;59.71;98967.81;6235616;23;20349;-38
2022/02/27 06:17:25;;;;;;;7.07;5.00;;;-0.10;75.40;;;0.31;59.56;98969.63;6235210;23;20031;-37
2022/02/27 06:19:53;;;;;;;11.60;5.03;;;-0.10;75.80;;;0.29;59.59;98971.47;6234453;23;20020;-37
2022/02/27 06:22:28;;;;;;;11.30;5.13;;;-0.10;75.80;;;0.29;59.36;98975.84;6246125;23;20019;-37
2022/02/27 06:24:56;;;;;;;9.83;5.10;;;-0.10;76.00;;;0.29;60.26;98971.47;6236088;23;20027;-37
2022/02/27 06:27:24;;;;;;;11.70;5.60;;;-0.20;75.70;;;0.25;59.83;98969.88;6209679;23;20015;-37
2022/02/27 06:29:51;;;;;;;11.40;5.90;;;-0.20;76.10;;;0.25;59.55;98974.25;6234840;23;20026;-37
2022/02/27 06:32:19;;;;;;;8.37;5.50;;;-0.20;76.20;;;0.29;60.09;98973.22;6234543;23;20028;-37
2022/02/27 06:34:47;;;;;;;14.53;7.53;;;-0.20;76.30;;;0.31;59.73;98980.13;6235068;23;20054;-37
2022/02/27 06:37:14;;;;;;;13.17;6.17;;;-0.10;76.50;;;0.32;60.61;98981.81;6234566;23;20024;-38
2022/02/27 06:39:42;;;;;;;12.70;6.03;;;-0.10;76.30;;;0.35;59.88;98979.06;6234699;23;20018;-37
2022/02/27 06:42:10;;;;;;;10.20;5.93;;;-0.10;76.60;;;0.34;60.08;98982.59;6235468;23;20012;-37
2022/02/27 06:44:38;;;;;;;10.53;5.57;;;-0.10;76.40;;;0.36;59.65;98987.78;6234608;23;20016;-37
2022/02/27 06:47:07;;;;;;;9.17;5.03;;;0.00;76.60;;;0.41;59.85;98990.19;6235044;23;20019;-37
2022/02/27 06:49:35;;;;;;;8.50;5.27;;;0.00;76.70;;;0.44;59.72;98987.44;6235602;23;20429;-37
2022/02/27 06:52:03;;;;;;;11.23;5.33;;;0.10;76.60;;;0.49;59.63;98993.34;6235894;23;20345;-37
2022/02/27 06:54:31;;;;;;;8.83;5.17;;;0.10;76.60;;;0.53;60.26;98994.94;6234405;23;20030;-38
2022/02/27 06:56:59;;;;;;;9.80;4.87;;;0.20;76.60;;;0.55;60.80;98999.19;6235628;23;20024;-36
2022/02/27 06:59:27;;;;;;;11.90;5.23;;;0.20;77.00;;;0.58;60.82;98985.09;6237246;23;20342;-36
2022/02/27 07:01:55;;;;;;;8.63;5.10;;;0.30;77.10;;;0.61;60.27;98990.19;6237106;23;20217;-37
2022/02/27 07:04:23;;;;;;;8.60;5.40;;;0.30;77.00;;;0.63;60.31;98996.22;6236635;23;20024;-37
2022/02/27 07:06:50;;;;;;;12.03;4.87;;;0.30;77.30;;;0.65;60.13;98989.16;6237261;23;20020;-38
2022/02/27 07:09:20;;;;;;;8.40;5.70;;;0.30;77.60;;;0.68;61.00;98988.16;6235766;23;20023;-38
2022/02/27 07:11:48;;;;;;;13.10;5.87;;;0.40;78.00;;;0.71;60.54;98993.28;6237801;23;20016;-38
2022/02/27 07:14:16;;;;;;;11.70;5.93;;;0.40;78.20;;;0.75;60.37;99000.94;6236586;23;20027;-39
2022/02/27 07:16:43;;;;;;;12.97;6.47;;;0.40;78.60;;;0.78;60.91;99000.81;6237405;23;20133;-38
2022/02/27 07:19:12;;;;;;;12.57;5.97;;;0.40;78.50;;;0.82;60.94;98995.44;6235507;23;20024;-38
2022/02/27 07:21:40;;;;;;;14.87;5.90;;;0.50;79.00;;;0.87;60.99;99004.78;6237300;23;20020;-38
2022/02/27 07:24:08;;;;;;;12.37;6.10;;;0.50;79.30;;;0.88;61.23;99009.13;6235945;23;20016;-38
2022/02/27 07:26:35;;;;;;;9.13;5.23;;;0.50;79.30;;;0.92;60.95;99002.81;6236775;23;20026;-38
2022/02/27 07:29:03;;;;;;;12.40;5.57;;;0.60;79.70;;;0.95;61.46;99010.56;6238527;23;20020;-38
2022/02/27 07:31:31;;;;;;;11.33;6.33;;;0.70;79.80;;;0.98;60.97;99009.56;6236891;23;20020;-38
2022/02/27 07:34:00;;;;;;;14.50;7.03;;;0.70;80.40;;;1.01;61.39;99012.06;6235145;23;20024;-38
2022/02/27 07:36:28;;;;;;;9.53;4.93;;;0.70;80.70;;;1.04;62.10;99018.94;6232619;23;20016;-38
2022/02/27 07:38:56;;;;;;;14.43;6.07;;;0.70;81.00;;;1.05;61.41;99012.75;6235330;23;20046;-38
2022/02/27 07:41:24;;;;;;;11.67;5.60;;;0.70;81.10;;;1.08;61.38;99016.09;6234972;23;20206;-38
2022/02/27 07:43:56;;;;;;;7.70;5.07;;;0.70;81.50;;;1.10;61.81;99019.50;6244987;23;20020;-38
2022/02/27 07:46:24;;;;;;;11.80;6.10;;;0.70;81.70;;;1.13;62.06;99018.53;6234610;23;20332;-38
2022/02/27 07:48:52;;;;;;;12.67;6.87;;;0.80;82.00;;;1.18;61.70;99024.41;6233850;23;20022;-38
2022/02/27 07:51:26;;;;;;;11.03;5.50;;;0.90;82.10;;;1.22;61.88;99025.13;6244753;23;20023;-38
2022/02/27 07:53:54;;;;;;;10.57;5.23;;;0.90;82.00;;;1.24;61.73;99024.16;6235465;23;20225;-37
2022/02/27 07:56:23;;;;;;;11.60;5.40;;;0.90;82.20;;;1.28;61.68;99024.84;6233017;23;20020;-37
2022/02/27 07:58:52;;;;;;;9.67;5.67;;;0.90;82.10;;;1.32;61.63;99031.69;6235814;23;20037;-38
2022/02/27 08:01:20;;;;;;;8.37;5.53;;;1.00;82.10;;;1.35;61.70;99034.16;6235861;23;20020;-37
2022/02/27 08:03:49;;;;;;;11.33;5.97;;;1.10;82.10;;;1.40;62.32;99037.44;6235572;23;20151;-37
2022/02/27 08:06:16;;;;;;;10.37;5.67;;;1.10;82.20;;;1.44;61.87;99035.53;6235692;23;20384;-37
2022/02/27 08:08:44;;;;;;;12.90;6.00;;;1.10;82.10;;;1.46;62.07;99039.78;6234705;23;20016;-37
2022/02/27 08:11:12;;;;;;;11.30;5.47;;;1.10;82.20;;;1.48;62.37;99039.72;6236350;23;20023;-37
2022/02/27 08:13:40;;;;;;;13.07;6.07;;;1.10;83.00;;;1.50;62.74;99030.84;6235109;23;20016;-38
2022/02/27 08:16:09;;;;;;;10.57;5.33;;;1.20;82.00;;;1.53;62.06;99033.34;6235297;23;20666;-37
2022/02/27 08:18:37;;;;;;;11.90;6.23;;;1.20;82.10;;;1.55;61.90;99039.38;6235047;23;20203;-37
2022/02/27 08:21:05;;;;;;;21.07;9.00;;;1.20;82.30;;;1.60;62.19;99033.03;6236146;23;20314;-37
2022/02/27 08:23:34;;;;;;;29.53;13.07;;;1.30;82.10;;;1.64;62.20;99042.47;6234768;23;20018;-37
2022/02/27 08:26:02;;;;;;;21.23;9.43;;;1.30;82.10;;;1.68;62.40;99030.91;6234365;23;20203;-37
2022/02/27 08:28:31;;;;;;;12.97;8.07;;;1.40;82.20;;;1.73;62.57;99039.44;6234275;23;20018;-37
2022/02/27 08:31:00;;;;;;;10.13;7.00;;;1.40;82.10;;;1.76;62.27;99041.91;6235431;23;20468;-37
2022/02/27 08:33:29;;;;;;;10.67;5.97;;;1.50;82.20;;;1.82;62.36;99036.34;6234150;23;20201;-37
2022/02/27 08:35:56;;;;;;;9.23;7.03;;;1.60;82.10;;;1.86;62.79;99032.69;6235594;23;20411;-37
2022/02/27 08:38:26;;;;;;;12.23;5.80;;;1.60;82.10;;;1.92;62.85;99031.50;6236213;23;20294;-37
2022/02/27 08:40:56;;;;;;;8.43;5.43;;;1.60;82.20;;;1.97;62.68;99033.00;6236109;23;20016;-36
2022/02/27 08:43:24;;;;;;;13.23;5.97;;;1.70;82.20;;;2.05;62.78;99031.78;6234404;23;20318;-37
2022/02/27 08:45:53;;;;;;;11.63;5.23;;;1.80;82.10;;;2.12;63.10;99033.22;6235391;23;20445;-37
2022/02/27 08:48:23;;;;;;;10.97;5.80;;;1.90;82.00;;;2.17;62.85;99033.81;6235248;23;20012;-36
2022/02/27 08:50:51;;;;;;;9.83;5.37;;;2.00;81.90;;;2.24;62.72;99042.28;6235822;23;20031;-36
2022/02/27 08:53:18;;;;;;;10.20;5.43;;;2.10;81.20;;;2.28;62.58;99039.41;6235195;23;20076;-36
2022/02/27 08:55:46;;;;;;;10.10;5.13;;;2.10;80.90;;;2.33;62.87;99036.56;6234892;23;20042;-37
2022/02/27 08:58:14;;;;;;;8.20;4.83;;;2.20;80.30;;;2.38;62.71;99042.44;6235137;23;20016;-36
2022/02/27 09:00:44;;;;;;;8.37;5.20;;;2.20;80.00;;;2.45;62.33;99043.00;6231189;23;20016;-38
2022/02/27 09:03:13;;;;;;;8.00;5.40;;;2.30;79.90;;;2.50;62.79;99044.47;6233702;23;20016;-37
2022/02/27 09:05:43;;;;;;;8.80;5.97;;;2.40;79.80;;;2.55;62.88;99036.34;6234239;23;20318;-37
2022/02/27 09:08:11;;;;;;;10.93;5.50;;;2.40;79.50;;;2.61;62.38;99041.28;6234945;23;20026;-37
2022/02/27 09:10:38;;;;;;;8.87;5.47;;;2.50;79.10;;;2.69;62.49;99027.75;6236111;23;20460;-37
2022/02/27 09:13:06;;;;;;;12.23;5.50;;;2.60;78.60;;;2.76;61.97;99034.41;6235503;23;20016;-37
2022/02/27 09:15:35;;;;;;;10.23;5.80;;;2.70;78.40;;;2.81;62.36;99035.03;6235387;23;20024;-37
2022/02/27 09:18:03;;;;;;;10.93;5.20;;;2.70;78.00;;;2.86;61.88;99030.38;6234729;23;20028;-36
2022/02/27 09:20:31;;;;;;;10.83;5.37;;;2.80;77.80;;;2.92;61.80;99030.06;6234221;23;20028;-36
2022/02/27 09:22:59;;;;;;;11.73;5.30;;;2.80;77.30;;;2.96;61.65;99030.75;6237137;23;20020;-37
2022/02/27 09:25:26;;;;;;;9.87;5.10;;;2.90;76.90;;;3.04;61.78;99028.56;6235737;23;20024;-36
2022/02/27 09:28:15;;;;;;;9.33;5.00;;;3.00;76.70;;;3.10;61.83;99024.75;6235516;23;20294;-37
2022/02/27 09:30:43;;;;;;;10.87;5.70;;;3.00;76.70;;;3.13;61.70;99025.47;6209445;23;20034;-37
2022/02/27 09:33:11;;;;;;;8.40;5.27;;;3.00;76.20;;;3.21;61.66;99025.06;6235036;23;20214;-37
2022/02/27 09:35:39;;;;;;;7.97;5.00;;;3.10;76.40;;;3.26;61.19;99022.19;6233965;23;20330;-37
2022/02/27 09:38:07;;;;;;;9.13;4.60;;;3.10;76.20;;;3.25;61.58;99018.69;6235941;23;20052;-37
2022/02/27 09:40:35;;;;;;;11.10;5.40;;;3.20;75.70;;;3.32;61.51;99014.81;6234802;23;20016;-37
2022/02/27 09:43:03;;;;;;;9.10;5.30;;;3.30;75.70;;;3.41;61.72;99013.44;6233637;23;20026;-37
2022/02/27 09:45:31;;;;;;;8.60;5.33;;;3.40;75.50;;;3.48;60.98;99012.19;6232356;23;20203;-37
2022/02/27 09:47:59;;;;;;;10.33;5.43;;;3.40;75.50;;;3.54;61.59;99011.84;6235217;23;20030;-37
2022/02/27 09:50:27;;;;;;;8.70;5.00;;;3.50;75.30;;;3.60;61.48;99007.19;6235833;23;20027;-38
2022/02/27 09:52:57;;;;;;;7.60;4.53;;;3.60;74.90;;;3.66;60.82;99006.84;6235423;23;20020;-37
2022/02/27 09:55:25;;;;;;;6.13;4.30;;;3.60;74.10;;;3.72;61.10;99011.78;6244880;23;20012;-38
2022/02/27 09:57:53;;;;;;;8.23;4.43;;;3.60;73.60;;;3.79;60.57;99012.31;6232137;23;20020;-37
2022/02/27 10:00:21;;;;;;;6.67;4.00;;;3.70;73.20;;;3.85;60.13;99010.16;6234170;23;20020;-38
2022/02/27 10:03:05;;;;;;;9.57;4.43;;;3.80;72.20;;;3.86;59.75;99017.16;6233505;23;20221;-37
2022/02/27 10:05:39;;;;;;;13.00;6.00;;;3.80;70.70;;;3.88;59.92;99011.81;6233871;23;20016;-38
2022/02/27 10:08:09;;;;;;;11.27;5.88;;;3.80;70.90;;;3.93;59.60;99012.38;6244876;23;20020;-38
2022/02/27 10:10:55;;;;;;;12.43;5.70;;;3.80;71.00;;;3.98;59.39;99014.78;6233357;23;20020;-37
2022/02/27 10:13:37;;;;;;;9.00;4.83;;;3.90;70.70;;;4.03;58.51;99005.69;6220556;23;20020;-38
2022/02/27 10:16:17;;;;;;;5.73;3.67;;;4.00;70.20;;;4.08;57.63;99011.50;6243940;23;20026;-38
2022/02/27 10:18:51;;;;;;;5.23;3.57;;;4.10;67.10;;;4.17;54.59;99006.66;6184774;23;20199;-38
2022/02/27 10:21:31;;;;;;;5.10;3.50;;;4.20;63.50;;;4.23;55.21;99003.69;6233506;23;20030;-37
2022/02/27 10:24:17;;;;;;;9.37;3.47;;;4.30;63.10;;;4.30;54.94;99002.38;6234577;23;20031;-37
2022/02/27 10:26:50;;;;;;;5.23;2.90;;;4.40;62.50;;;4.40;53.37;98995.66;6234703;23;20027;-38
2022/02/27 10:29:21;;;;;;;6.17;3.37;;;4.50;61.00;;;4.53;55.22;98995.75;6234469;23;20016;-37
2022/02/27 10:31:57;;;;;;;5.53;3.10;;;4.60;62.30;;;4.61;53.54;98998.78;6245709;23;20038;-37
2022/02/27 10:34:35;;;;;;;5.77;3.60;;;4.70;62.00;;;4.68;52.53;98991.38;6244237;23;20023;-37